Accueil
METAR-TAF:

METAR-TAF

Aéroports :

Aéroport Sandro-Pertini de Turin Caselle

Turin, Italie

latitude: 45-13N, longitude: 007-39E, altitude: 301 m

Observation

Le bulletin a été fait il y a 19 minutes, à 08:50 UTC
Vent 3 kt de sud-ouest
Température 2°C
Humidité 75%
Pression 1027 hPa
Visibilité 10 km ou plus
Nuages fragmentés à une hauteur de 12000 ft

METAR: LIMF 240850Z 22003KT 9999 BKN120 02/M02 Q1027

Heure: 10:09 (09:09 UTC)

Prévision

Le bulletin a été fait il y a 4 heures et 9 minutes, à 05:00 UTC
Prévision valable du 24 à 06 UTC au 25 à 06 UTC
Vent 5 kt de direction variable
Visibilité: 7000 m
Nuages épars à une hauteur de 3000 ft
Nuages fragmentés à une hauteur de 7000 ft
Temporairement
du 24 à 09 UTC au 24 à 21 UTC
pluie

TAF: LIMF 240500Z 2406/2506 VRB05KT 7000 SCT030 BKN070 TEMPO 2409/2421 RA

Observations et prévisions météorologiques de plus de 4000 aéroports (messages METAR et TAF).

Les stations disponibles sont représentées par des disques jaunes et rouges sur la carte.

Passer la souris dessus pour voir le nom de la station.

Cliquer dessus pour voir les observations et prévisions météorologiques.

Pour changer de carte: cliquez sur les boutons verts avec une croix noire pour zoomer, sur le bouton vert avec un tiret pour effectuer un zoom arrière, ou sur les flèches vertes pour les cartes adjacentes.


METAR-TAF: